Flight Track Log - Related Links

Times and Time Zones

All times are in EDT time to prevent confusion due to time zone crossing. See the AAR8738 flight status page for this flight to view local times or setup timezone preferences in your user account.


Time Position Orientation Groundspeed Altitude Reporting Facility
EDT Latitude Longitude Course Direction KTS MPH feet Rate Location/Type
Mon 05:59:00 AM 35.1514 127.5237 346° North  Level Estimated
Mon 06:00:00 AM 35.2293 127.5007 346° North  Level Estimated
Mon 06:01:00 AM 35.3072 127.4776 346° North  Level Estimated
Mon 06:02:00 AM 35.3851 127.4545 346° North  Level Estimated
Mon 06:03:00 AM 35.4630 127.4314 346° North  Level Estimated
Mon 06:04:00 AM 35.5409 127.4082 346° North  Level Estimated
Mon 06:05:00 AM 35.6188 127.3850 346° North  Level Estimated
Mon 06:06:00 AM 35.6966 127.3617 346° North  Level Estimated
Mon 06:07:00 AM 35.7745 127.3384 346° North  Level Estimated
Mon 06:08:00 AM 35.8524 127.3150 346° North  Level Estimated
Mon 06:09:00 AM 35.9302 127.2916 346° North  Level Estimated
Mon 06:10:00 AM 36.0081 127.2681 346° North  Level Estimated
Mon 06:11:00 AM 36.0859 127.2446 346° North  Level Estimated
Mon 06:12:00 AM 36.1638 127.2210 346° North  Level Estimated
Mon 06:13:00 AM 36.2416 127.1974 346° North  Level Estimated
Mon 06:14:00 AM 36.3195 127.1738 346° North  Level Estimated
Mon 06:15:00 AM 36.3973 127.1501 346° North  Level Estimated
Mon 06:16:00 AM 36.4751 127.1263 346° North  Level Estimated
Mon 06:17:00 AM 36.5529 127.1025 346° North  Level Estimated
Mon 06:18:00 AM 36.6307 127.0787 346° North  Level Estimated
Mon 06:19:00 AM 36.7086 127.0548 346° North  Level Estimated
Mon 06:20:00 AM 36.7864 127.0309 346° North  Level Estimated
Mon 06:21:00 AM 36.8642 127.0069 346° North  Level Estimated
Mon 06:22:00 AM 36.9420 126.9828 346° North  Level Estimated
Mon 06:23:00 AM 37.0198 126.9587 346° North  Level Estimated
Mon 06:24:00 AM 37.0975 126.9346 346° North  Level Estimated
Mon 06:25:00 AM 37.1753 126.9104 346° North  Level Estimated
Mon 06:26:00 AM 37.2531 126.8862 346° North  Level Estimated
Mon 06:27:00 AM 37.3309 126.8619 346° North  Level Estimated
Mon 06:28:00 AM 37.4086 126.8376 346° North  Level Estimated
Mon 06:29:00 AM 37.4864 126.8132 346° North  Level Estimated
Mon 06:30:00 AM 37.5583 126.7906 346° North  Level Estimated
Mon 06:31:00 AM 37.5583 126.7906 North  Level Estimated
Mon 06:32:00 AM 37.5583 126.7906 North  Level Estimated
Mon 06:32:14 AM 37.4211 126.9599 316° Northwest 154 177 3,400  Level FlightAware ADS-B
Mon 06:32:28 AM 37.4287 126.9504 315° West 149 171 3,200 -621 Descending FlightAware ADS-B
Mon 06:32:43 AM 37.4353 126.9420 316° Northwest 149 171 3,100 -600 Descending FlightAware ADS-B
Mon 06:32:58 AM 37.4433 126.9322 316° Northwest 147 169 2,900 -1,000 Descending FlightAware ADS-B
Mon 06:33:13 AM 37.4502 126.9236 315° West 148 170 2,600 -1,000 Descending FlightAware ADS-B
Mon 06:33:28 AM 37.4576 126.9142 315° West 147 169 2,400 -621 Descending FlightAware ADS-B
Mon 06:33:42 AM 37.4641 126.9061 315° West 145 167 2,300 -600 Descending FlightAware ADS-B
Mon 06:33:58 AM 37.4719 126.8963 315° West 132 152 2,100 -800 Descending FlightAware ADS-B
Mon 06:34:12 AM 37.4771 126.8898 315° West 125 144 1,900 -600 Descending FlightAware ADS-B
Mon 06:34:28 AM 37.4840 126.8813 316° Northwest 120 138 1,800 -581 Descending FlightAware ADS-B
Mon 06:34:43 AM 37.4897 126.8741 315° West 118 136 1,600 -800 Descending FlightAware ADS-B
Mon 06:34:58 AM 37.4956 126.8666 315° West 118 136 1,400 -667 Descending FlightAware ADS-B
Mon 06:35:19 AM 37.5029 126.8576 315° West 118 136 1,200 -686 Descending FlightAware ADS-B
Mon 06:35:33 AM 37.5094 126.8494 315° West 118 136 1,000 -529 Descending FlightAware ADS-B
Mon 06:35:53 AM 37.5169 126.8401 316° Northwest 119 137 900 -474 Descending FlightAware ADS-B
Mon 06:36:11 AM 37.5227 126.8328 315° West 121 139 700 -750 Descending FlightAware ADS-B
Mon 06:36:33 AM 37.5332 126.8195 315° West 127 146 400 -732 Descending FlightAware ADS-B
Mon 06:36:52 AM 37.5411 126.8096 315° West 130 150 200 -632 Descending FlightAware ADS-B

Login

Don't have an account? Register now (free) for customized features, flight alerts, and more!